sensor_id;sensor_type;location;lat;lon;timestamp;P1;durP1;ratioP1;P2;durP2;ratioP2
62808;SDS011;48848;39.002;-94.584;2022-07-06T00:01:57;3.90;;;2.70;;
62808;SDS011;48848;39.002;-94.584;2022-07-06T00:04:23;6.95;;;2.50;;
62808;SDS011;48848;39.002;-94.584;2022-07-06T00:06:49;8.90;;;2.85;;
62808;SDS011;48848;39.002;-94.584;2022-07-06T00:09:16;3.50;;;2.30;;
62808;SDS011;48848;39.002;-94.584;2022-07-06T00:11:42;4.97;;;2.70;;
62808;SDS011;48848;39.002;-94.584;2022-07-06T00:14:08;7.70;;;2.47;;
62808;SDS011;48848;39.002;-94.584;2022-07-06T00:16:35;7.18;;;2.95;;
62808;SDS011;48848;39.002;-94.584;2022-07-06T00:19:01;8.38;;;2.45;;
62808;SDS011;48848;39.002;-94.584;2022-07-06T00:21:28;9.55;;;2.58;;
62808;SDS011;48848;39.002;-94.584;2022-07-06T00:23:54;5.07;;;2.40;;
62808;SDS011;48848;39.002;-94.584;2022-07-06T00:26:20;12.27;;;2.55;;
62808;SDS011;48848;39.002;-94.584;2022-07-06T00:28:46;6.10;;;2.90;;
62808;SDS011;48848;39.002;-94.584;2022-07-06T00:31:12;9.93;;;2.20;;
62808;SDS011;48848;39.002;-94.584;2022-07-06T00:33:39;6.05;;;2.28;;
62808;SDS011;48848;39.002;-94.584;2022-07-06T00:36:05;3.70;;;2.13;;
62808;SDS011;48848;39.002;-94.584;2022-07-06T00:38:31;5.35;;;2.30;;
62808;SDS011;48848;39.002;-94.584;2022-07-06T00:40:57;5.72;;;2.08;;
62808;SDS011;48848;39.002;-94.584;2022-07-06T00:43:23;3.15;;;2.00;;
62808;SDS011;48848;39.002;-94.584;2022-07-06T00:45:50;4.00;;;2.00;;
62808;SDS011;48848;39.002;-94.584;2022-07-06T00:48:16;3.53;;;1.88;;
62808;SDS011;48848;39.002;-94.584;2022-07-06T00:50:42;3.38;;;2.08;;
62808;SDS011;48848;39.002;-94.584;2022-07-06T00:53:08;6.63;;;2.05;;
62808;SDS011;48848;39.002;-94.584;2022-07-06T00:55:38;3.58;;;1.92;;
62808;SDS011;48848;39.002;-94.584;2022-07-06T00:58:05;3.20;;;1.83;;
62808;SDS011;48848;39.002;-94.584;2022-07-06T01:00:32;2.90;;;1.90;;
62808;SDS011;48848;39.002;-94.584;2022-07-06T01:02:59;3.03;;;1.70;;
62808;SDS011;48848;39.002;-94.584;2022-07-06T01:05:27;4.82;;;1.70;;
62808;SDS011;48848;39.002;-94.584;2022-07-06T01:07:53;4.63;;;1.98;;
62808;SDS011;48848;39.002;-94.584;2022-07-06T01:10:21;12.68;;;1.90;;
62808;SDS011;48848;39.002;-94.584;2022-07-06T01:12:48;9.10;;;1.70;;
62808;SDS011;48848;39.002;-94.584;2022-07-06T01:15:21;7.75;;;1.80;;
62808;SDS011;48848;39.002;-94.584;2022-07-06T01:17:49;4.32;;;1.75;;
62808;SDS011;48848;39.002;-94.584;2022-07-06T01:20:16;2.88;;;1.60;;
62808;SDS011;48848;39.002;-94.584;2022-07-06T01:22:45;3.97;;;1.88;;
62808;SDS011;48848;39.002;-94.584;2022-07-06T01:25:12;2.47;;;1.65;;
62808;SDS011;48848;39.002;-94.584;2022-07-06T01:27:39;19.40;;;2.22;;
62808;SDS011;48848;39.002;-94.584;2022-07-06T01:30:08;8.90;;;1.80;;
62808;SDS011;48848;39.002;-94.584;2022-07-06T01:32:37;6.50;;;1.67;;
62808;SDS011;48848;39.002;-94.584;2022-07-06T01:35:07;4.65;;;1.98;;
62808;SDS011;48848;39.002;-94.584;2022-07-06T01:37:35;4.05;;;1.70;;
62808;SDS011;48848;39.002;-94.584;2022-07-06T01:40:03;5.10;;;1.80;;
62808;SDS011;48848;39.002;-94.584;2022-07-06T01:42:30;2.92;;;1.75;;
62808;SDS011;48848;39.002;-94.584;2022-07-06T01:44:57;2.63;;;1.60;;
62808;SDS011;48848;39.002;-94.584;2022-07-06T01:47:23;4.13;;;2.10;;
62808;SDS011;48848;39.002;-94.584;2022-07-06T01:49:49;2.33;;;1.50;;
62808;SDS011;48848;39.002;-94.584;2022-07-06T01:52:16;4.82;;;1.60;;
62808;SDS011;48848;39.002;-94.584;2022-07-06T01:54:42;2.40;;;1.50;;
62808;SDS011;48848;39.002;-94.584;2022-07-06T01:57:08;2.40;;;1.50;;
62808;SDS011;48848;39.002;-94.584;2022-07-06T01:59:35;4.00;;;1.70;;
62808;SDS011;48848;39.002;-94.584;2022-07-06T02:02:01;2.70;;;1.60;;
62808;SDS011;48848;39.002;-94.584;2022-07-06T02:04:27;3.20;;;1.77;;
62808;SDS011;48848;39.002;-94.584;2022-07-06T02:06:53;2.72;;;1.70;;
62808;SDS011;48848;39.002;-94.584;2022-07-06T02:09:20;2.17;;;1.50;;
62808;SDS011;48848;39.002;-94.584;2022-07-06T02:11:46;3.33;;;1.63;;
62808;SDS011;48848;39.002;-94.584;2022-07-06T02:14:12;3.05;;;1.50;;
62808;SDS011;48848;39.002;-94.584;2022-07-06T02:16:38;2.92;;;1.52;;
62808;SDS011;48848;39.002;-94.584;2022-07-06T02:19:04;2.58;;;1.60;;
62808;SDS011;48848;39.002;-94.584;2022-07-06T02:21:31;2.22;;;1.42;;
62808;SDS011;48848;39.002;-94.584;2022-07-06T02:23:57;3.50;;;1.55;;
62808;SDS011;48848;39.002;-94.584;2022-07-06T02:26:23;2.70;;;1.60;;
62808;SDS011;48848;39.002;-94.584;2022-07-06T02:28:49;2.20;;;1.42;;
62808;SDS011;48848;39.002;-94.584;2022-07-06T02:31:15;3.00;;;1.50;;
62808;SDS011;48848;39.002;-94.584;2022-07-06T02:33:41;2.08;;;1.30;;
62808;SDS011;48848;39.002;-94.584;2022-07-06T02:36:08;2.22;;;1.38;;
62808;SDS011;48848;39.002;-94.584;2022-07-06T02:38:34;2.42;;;1.40;;
62808;SDS011;48848;39.002;-94.584;2022-07-06T02:41:00;2.05;;;1.38;;
62808;SDS011;48848;39.002;-94.584;2022-07-06T02:43:26;3.55;;;1.55;;
62808;SDS011;48848;39.002;-94.584;2022-07-06T02:45:52;1.90;;;1.30;;
62808;SDS011;48848;39.002;-94.584;2022-07-06T02:48:18;2.50;;;1.40;;
62808;SDS011;48848;39.002;-94.584;2022-07-06T02:50:46;2.35;;;1.33;;
62808;SDS011;48848;39.002;-94.584;2022-07-06T02:53:13;6.00;;;1.50;;
62808;SDS011;48848;39.002;-94.584;2022-07-06T02:55:39;2.38;;;1.40;;
62808;SDS011;48848;39.002;-94.584;2022-07-06T02:58:05;3.17;;;1.23;;
62808;SDS011;48848;39.002;-94.584;2022-07-06T03:00:31;4.32;;;1.50;;
62808;SDS011;48848;39.002;-94.584;2022-07-06T03:02:57;2.30;;;1.33;;
62808;SDS011;48848;39.002;-94.584;2022-07-06T03:05:24;2.72;;;1.40;;
62808;SDS011;48848;39.002;-94.584;2022-07-06T03:07:50;3.35;;;1.35;;
62808;SDS011;48848;39.002;-94.584;2022-07-06T03:10:16;2.38;;;1.40;;
62808;SDS011;48848;39.002;-94.584;2022-07-06T03:12:42;2.33;;;1.25;;
62808;SDS011;48848;39.002;-94.584;2022-07-06T03:15:08;3.03;;;1.40;;
62808;SDS011;48848;39.002;-94.584;2022-07-06T03:17:36;2.17;;;1.40;;
62808;SDS011;48848;39.002;-94.584;2022-07-06T03:20:03;2.30;;;1.25;;
62808;SDS011;48848;39.002;-94.584;2022-07-06T03:22:30;4.72;;;1.30;;
62808;SDS011;48848;39.002;-94.584;2022-07-06T03:24:56;2.22;;;1.30;;
62808;SDS011;48848;39.002;-94.584;2022-07-06T03:27:22;1.95;;;1.20;;
62808;SDS011;48848;39.002;-94.584;2022-07-06T03:29:49;2.78;;;1.30;;
62808;SDS011;48848;39.002;-94.584;2022-07-06T03:32:15;2.00;;;1.38;;
62808;SDS011;48848;39.002;-94.584;2022-07-06T03:34:41;2.60;;;1.30;;
62808;SDS011;48848;39.002;-94.584;2022-07-06T03:37:07;1.73;;;1.13;;
62808;SDS011;48848;39.002;-94.584;2022-07-06T03:39:33;2.15;;;1.40;;
62808;SDS011;48848;39.002;-94.584;2022-07-06T03:41:59;4.20;;;1.20;;
62808;SDS011;48848;39.002;-94.584;2022-07-06T03:44:26;1.70;;;1.20;;
62808;SDS011;48848;39.002;-94.584;2022-07-06T03:46:52;2.80;;;1.40;;
62808;SDS011;48848;39.002;-94.584;2022-07-06T03:49:21;2.47;;;1.30;;
62808;SDS011;48848;39.002;-94.584;2022-07-06T03:51:47;1.52;;;1.20;;
62808;SDS011;48848;39.002;-94.584;2022-07-06T03:54:13;1.77;;;1.20;;
62808;SDS011;48848;39.002;-94.584;2022-07-06T03:56:39;1.90;;;1.30;;
62808;SDS011;48848;39.002;-94.584;2022-07-06T03:59:05;1.88;;;1.20;;
62808;SDS011;48848;39.002;-94.584;2022-07-06T04:01:32;1.42;;;1.10;;
62808;SDS011;48848;39.002;-94.584;2022-07-06T04:03:58;1.88;;;1.20;;
62808;SDS011;48848;39.002;-94.584;2022-07-06T04:06:24;1.75;;;1.27;;
62808;SDS011;48848;39.002;-94.584;2022-07-06T04:08:51;1.83;;;1.25;;
62808;SDS011;48848;39.002;-94.584;2022-07-06T04:11:17;1.50;;;1.10;;
62808;SDS011;48848;39.002;-94.584;2022-07-06T04:13:43;2.35;;;1.40;;
62808;SDS011;48848;39.002;-94.584;2022-07-06T04:16:09;2.00;;;1.30;;
62808;SDS011;48848;39.002;-94.584;2022-07-06T04:18:36;2.00;;;1.33;;
62808;SDS011;48848;39.002;-94.584;2022-07-06T04:21:02;1.60;;;1.20;;
62808;SDS011;48848;39.002;-94.584;2022-07-06T04:23:28;1.67;;;1.20;;
62808;SDS011;48848;39.002;-94.584;2022-07-06T04:25:55;3.13;;;1.08;;
62808;SDS011;48848;39.002;-94.584;2022-07-06T04:28:21;1.88;;;1.20;;
62808;SDS011;48848;39.002;-94.584;2022-07-06T04:30:47;1.80;;;1.17;;
62808;SDS011;48848;39.002;-94.584;2022-07-06T04:33:13;1.80;;;1.20;;
62808;SDS011;48848;39.002;-94.584;2022-07-06T04:35:39;2.75;;;1.27;;
62808;SDS011;48848;39.002;-94.584;2022-07-06T04:38:06;2.28;;;1.38;;
62808;SDS011;48848;39.002;-94.584;2022-07-06T04:40:32;2.47;;;1.35;;
62808;SDS011;48848;39.002;-94.584;2022-07-06T04:42:58;1.75;;;1.13;;
62808;SDS011;48848;39.002;-94.584;2022-07-06T04:45:25;2.08;;;1.20;;
62808;SDS011;48848;39.002;-94.584;2022-07-06T04:47:51;1.92;;;1.20;;
62808;SDS011;48848;39.002;-94.584;2022-07-06T04:50:17;1.67;;;1.13;;
62808;SDS011;48848;39.002;-94.584;2022-07-06T04:52:43;1.70;;;1.20;;
62808;SDS011;48848;39.002;-94.584;2022-07-06T04:55:10;1.85;;;1.25;;
62808;SDS011;48848;39.002;-94.584;2022-07-06T04:57:36;1.58;;;1.13;;
62808;SDS011;48848;39.002;-94.584;2022-07-06T05:00:03;1.92;;;1.20;;
62808;SDS011;48848;39.002;-94.584;2022-07-06T05:02:30;2.00;;;1.30;;
62808;SDS011;48848;39.002;-94.584;2022-07-06T05:04:56;2.03;;;1.30;;
62808;SDS011;48848;39.002;-94.584;2022-07-06T05:07:22;2.78;;;1.20;;
62808;SDS011;48848;39.002;-94.584;2022-07-06T05:09:53;2.25;;;1.30;;
62808;SDS011;48848;39.002;-94.584;2022-07-06T05:12:19;1.73;;;1.10;;
62808;SDS011;48848;39.002;-94.584;2022-07-06T05:14:46;1.90;;;1.30;;
62808;SDS011;48848;39.002;-94.584;2022-07-06T05:17:12;1.60;;;1.10;;
62808;SDS011;48848;39.002;-94.584;2022-07-06T05:19:38;1.95;;;1.10;;
62808;SDS011;48848;39.002;-94.584;2022-07-06T05:22:04;2.60;;;1.20;;
62808;SDS011;48848;39.002;-94.584;2022-07-06T05:24:30;2.00;;;1.20;;
62808;SDS011;48848;39.002;-94.584;2022-07-06T05:26:56;1.90;;;1.23;;
62808;SDS011;48848;39.002;-94.584;2022-07-06T05:29:22;1.55;;;1.10;;
62808;SDS011;48848;39.002;-94.584;2022-07-06T05:31:48;1.77;;;1.20;;
62808;SDS011;48848;39.002;-94.584;2022-07-06T05:34:17;1.73;;;1.20;;
62808;SDS011;48848;39.002;-94.584;2022-07-06T05:36:43;1.77;;;1.20;;
62808;SDS011;48848;39.002;-94.584;2022-07-06T05:39:09;1.70;;;1.10;;
62808;SDS011;48848;39.002;-94.584;2022-07-06T05:41:35;1.95;;;1.20;;
62808;SDS011;48848;39.002;-94.584;2022-07-06T05:44:01;2.03;;;1.20;;
62808;SDS011;48848;39.002;-94.584;2022-07-06T05:46:28;2.00;;;1.30;;
62808;SDS011;48848;39.002;-94.584;2022-07-06T05:48:54;3.25;;;1.10;;
62808;SDS011;48848;39.002;-94.584;2022-07-06T05:51:38;1.55;;;1.13;;
62808;SDS011;48848;39.002;-94.584;2022-07-06T05:54:05;1.63;;;1.17;;
62808;SDS011;48848;39.002;-94.584;2022-07-06T05:56:31;1.50;;;1.10;;
62808;SDS011;48848;39.002;-94.584;2022-07-06T05:58:57;1.70;;;1.05;;
62808;SDS011;48848;39.002;-94.584;2022-07-06T06:01:23;1.88;;;1.17;;
62808;SDS011;48848;39.002;-94.584;2022-07-06T06:03:49;2.00;;;1.17;;
62808;SDS011;48848;39.002;-94.584;2022-07-06T06:06:15;1.55;;;1.10;;
62808;SDS011;48848;39.002;-94.584;2022-07-06T06:08:42;1.83;;;1.20;;
62808;SDS011;48848;39.002;-94.584;2022-07-06T06:11:08;1.75;;;1.27;;
62808;SDS011;48848;39.002;-94.584;2022-07-06T06:13:34;1.80;;;1.20;;
62808;SDS011;48848;39.002;-94.584;2022-07-06T06:16:00;1.45;;;1.10;;
62808;SDS011;48848;39.002;-94.584;2022-07-06T06:18:26;1.38;;;1.00;;
62808;SDS011;48848;39.002;-94.584;2022-07-06T06:20:53;1.52;;;1.10;;
62808;SDS011;48848;39.002;-94.584;2022-07-06T06:23:19;1.35;;;1.00;;
62808;SDS011;48848;39.002;-94.584;2022-07-06T06:25:45;1.65;;;1.05;;
62808;SDS011;48848;39.002;-94.584;2022-07-06T06:28:11;1.67;;;1.10;;
62808;SDS011;48848;39.002;-94.584;2022-07-06T06:30:38;1.35;;;1.00;;
62808;SDS011;48848;39.002;-94.584;2022-07-06T06:33:09;1.50;;;1.10;;
62808;SDS011;48848;39.002;-94.584;2022-07-06T06:35:36;1.65;;;1.10;;
62808;SDS011;48848;39.002;-94.584;2022-07-06T06:38:07;1.50;;;1.15;;
62808;SDS011;48848;39.002;-94.584;2022-07-06T06:40:33;1.88;;;1.15;;
62808;SDS011;48848;39.002;-94.584;2022-07-06T06:42:59;1.30;;;1.08;;
62808;SDS011;48848;39.002;-94.584;2022-07-06T06:45:25;1.67;;;1.10;;
62808;SDS011;48848;39.002;-94.584;2022-07-06T06:47:52;1.50;;;0.93;;
62808;SDS011;48848;39.002;-94.584;2022-07-06T06:50:18;1.45;;;1.10;;
62808;SDS011;48848;39.002;-94.584;2022-07-06T06:52:44;1.38;;;1.10;;
62808;SDS011;48848;39.002;-94.584;2022-07-06T06:55:10;1.80;;;1.20;;
62808;SDS011;48848;39.002;-94.584;2022-07-06T06:57:37;1.30;;;1.00;;
62808;SDS011;48848;39.002;-94.584;2022-07-06T07:00:03;1.30;;;1.00;;
62808;SDS011;48848;39.002;-94.584;2022-07-06T07:02:30;1.20;;;1.00;;
62808;SDS011;48848;39.002;-94.584;2022-07-06T07:04:56;1.55;;;1.02;;
62808;SDS011;48848;39.002;-94.584;2022-07-06T07:07:22;1.95;;;1.17;;
62808;SDS011;48848;39.002;-94.584;2022-07-06T07:09:48;2.28;;;1.27;;
62808;SDS011;48848;39.002;-94.584;2022-07-06T07:12:14;1.85;;;1.20;;
62808;SDS011;48848;39.002;-94.584;2022-07-06T07:14:42;1.38;;;1.08;;
62808;SDS011;48848;39.002;-94.584;2022-07-06T07:17:09;1.65;;;1.10;;
62808;SDS011;48848;39.002;-94.584;2022-07-06T07:19:38;1.30;;;1.00;;
62808;SDS011;48848;39.002;-94.584;2022-07-06T07:22:05;1.52;;;1.10;;
62808;SDS011;48848;39.002;-94.584;2022-07-06T07:24:31;1.63;;;1.10;;
62808;SDS011;48848;39.002;-94.584;2022-07-06T07:26:58;1.10;;;0.90;;
62808;SDS011;48848;39.002;-94.584;2022-07-06T07:29:24;1.13;;;0.98;;
62808;SDS011;48848;39.002;-94.584;2022-07-06T07:31:50;1.58;;;1.10;;
62808;SDS011;48848;39.002;-94.584;2022-07-06T07:34:16;1.75;;;1.10;;
62808;SDS011;48848;39.002;-94.584;2022-07-06T07:36:43;1.35;;;1.00;;
62808;SDS011;48848;39.002;-94.584;2022-07-06T07:39:09;2.33;;;1.10;;
62808;SDS011;48848;39.002;-94.584;2022-07-06T07:41:35;1.83;;;1.30;;
62808;SDS011;48848;39.002;-94.584;2022-07-06T07:44:01;1.50;;;1.05;;
62808;SDS011;48848;39.002;-94.584;2022-07-06T07:46:27;1.45;;;1.00;;
62808;SDS011;48848;39.002;-94.584;2022-07-06T07:48:53;1.40;;;1.00;;
62808;SDS011;48848;39.002;-94.584;2022-07-06T07:51:20;1.70;;;1.00;;
62808;SDS011;48848;39.002;-94.584;2022-07-06T07:53:46;1.45;;;1.10;;
62808;SDS011;48848;39.002;-94.584;2022-07-06T07:56:12;1.50;;;1.08;;
62808;SDS011;48848;39.002;-94.584;2022-07-06T07:58:38;1.52;;;1.02;;
62808;SDS011;48848;39.002;-94.584;2022-07-06T08:01:04;1.20;;;0.90;;
62808;SDS011;48848;39.002;-94.584;2022-07-06T08:03:31;1.77;;;1.10;;
62808;SDS011;48848;39.002;-94.584;2022-07-06T08:05:57;1.55;;;1.00;;
62808;SDS011;48848;39.002;-94.584;2022-07-06T08:08:23;1.75;;;1.00;;
62808;SDS011;48848;39.002;-94.584;2022-07-06T08:10:50;1.05;;;0.90;;
62808;SDS011;48848;39.002;-94.584;2022-07-06T08:13:16;1.67;;;1.10;;
62808;SDS011;48848;39.002;-94.584;2022-07-06T08:15:42;1.50;;;1.10;;
62808;SDS011;48848;39.002;-94.584;2022-07-06T08:18:08;1.50;;;1.05;;
62808;SDS011;48848;39.002;-94.584;2022-07-06T08:20:37;1.35;;;1.00;;
62808;SDS011;48848;39.002;-94.584;2022-07-06T08:23:04;1.77;;;1.10;;
62808;SDS011;48848;39.002;-94.584;2022-07-06T08:25:30;2.28;;;1.13;;
62808;SDS011;48848;39.002;-94.584;2022-07-06T08:27:57;1.58;;;1.10;;
62808;SDS011;48848;39.002;-94.584;2022-07-06T08:30:23;1.48;;;1.10;;
62808;SDS011;48848;39.002;-94.584;2022-07-06T08:32:49;1.30;;;1.08;;
62808;SDS011;48848;39.002;-94.584;2022-07-06T08:35:16;2.30;;;1.10;;
62808;SDS011;48848;39.002;-94.584;2022-07-06T08:37:42;1.50;;;1.00;;
62808;SDS011;48848;39.002;-94.584;2022-07-06T08:40:08;1.30;;;1.00;;
62808;SDS011;48848;39.002;-94.584;2022-07-06T08:42:35;1.55;;;1.10;;
62808;SDS011;48848;39.002;-94.584;2022-07-06T08:45:03;1.08;;;0.90;;
62808;SDS011;48848;39.002;-94.584;2022-07-06T08:47:31;1.60;;;1.10;;
62808;SDS011;48848;39.002;-94.584;2022-07-06T08:50:00;1.25;;;1.00;;
62808;SDS011;48848;39.002;-94.584;2022-07-06T08:52:28;1.70;;;1.10;;
62808;SDS011;48848;39.002;-94.584;2022-07-06T08:54:55;1.17;;;1.00;;
62808;SDS011;48848;39.002;-94.584;2022-07-06T08:57:21;1.30;;;1.00;;
62808;SDS011;48848;39.002;-94.584;2022-07-06T08:59:49;1.13;;;0.90;;
62808;SDS011;48848;39.002;-94.584;2022-07-06T09:02:15;1.50;;;1.02;;
62808;SDS011;48848;39.002;-94.584;2022-07-06T09:04:43;1.38;;;1.00;;
62808;SDS011;48848;39.002;-94.584;2022-07-06T09:07:09;1.42;;;1.10;;
62808;SDS011;48848;39.002;-94.584;2022-07-06T09:09:37;1.58;;;1.10;;
62808;SDS011;48848;39.002;-94.584;2022-07-06T09:12:08;1.75;;;1.10;;
62808;SDS011;48848;39.002;-94.584;2022-07-06T09:14:38;2.15;;;1.08;;
62808;SDS011;48848;39.002;-94.584;2022-07-06T09:17:05;1.42;;;1.00;;
62808;SDS011;48848;39.002;-94.584;2022-07-06T09:19:32;1.23;;;1.10;;
62808;SDS011;48848;39.002;-94.584;2022-07-06T09:22:02;1.25;;;0.90;;
62808;SDS011;48848;39.002;-94.584;2022-07-06T09:24:29;1.15;;;1.00;;
62808;SDS011;48848;39.002;-94.584;2022-07-06T09:26:56;1.95;;;0.90;;
62808;SDS011;48848;39.002;-94.584;2022-07-06T09:29:27;1.23;;;1.00;;
62808;SDS011;48848;39.002;-94.584;2022-07-06T09:32:01;1.27;;;0.97;;
62808;SDS011;48848;39.002;-94.584;2022-07-06T09:34:43;1.38;;;1.00;;
62808;SDS011;48848;39.002;-94.584;2022-07-06T09:37:10;1.40;;;1.00;;
62808;SDS011;48848;39.002;-94.584;2022-07-06T09:39:37;1.27;;;0.90;;
62808;SDS011;48848;39.002;-94.584;2022-07-06T09:42:04;1.20;;;1.00;;
62808;SDS011;48848;39.002;-94.584;2022-07-06T09:44:35;1.45;;;1.00;;
62808;SDS011;48848;39.002;-94.584;2022-07-06T09:47:06;1.52;;;1.10;;
62808;SDS011;48848;39.002;-94.584;2022-07-06T09:49:35;2.83;;;1.02;;
62808;SDS011;48848;39.002;-94.584;2022-07-06T09:52:03;1.23;;;0.85;;
62808;SDS011;48848;39.002;-94.584;2022-07-06T09:54:34;1.20;;;0.93;;
62808;SDS011;48848;39.002;-94.584;2022-07-06T09:57:02;1.35;;;1.00;;
62808;SDS011;48848;39.002;-94.584;2022-07-06T09:59:30;1.30;;;1.00;;
62808;SDS011;48848;39.002;-94.584;2022-07-06T10:02:04;1.42;;;1.08;;
62808;SDS011;48848;39.002;-94.584;2022-07-06T10:04:32;1.75;;;1.00;;
62808;SDS011;48848;39.002;-94.584;2022-07-06T10:06:59;1.52;;;1.10;;
62808;SDS011;48848;39.002;-94.584;2022-07-06T10:09:26;1.25;;;1.00;;
62808;SDS011;48848;39.002;-94.584;2022-07-06T10:11:54;1.33;;;0.90;;
62808;SDS011;48848;39.002;-94.584;2022-07-06T10:14:23;1.38;;;1.00;;
62808;SDS011;48848;39.002;-94.584;2022-07-06T10:16:53;0.98;;;0.88;;
62808;SDS011;48848;39.002;-94.584;2022-07-06T10:19:21;1.25;;;1.00;;
62808;SDS011;48848;39.002;-94.584;2022-07-06T10:21:48;1.33;;;1.00;;
62808;SDS011;48848;39.002;-94.584;2022-07-06T10:24:16;1.27;;;0.98;;
62808;SDS011;48848;39.002;-94.584;2022-07-06T10:26:46;1.42;;;1.00;;
62808;SDS011;48848;39.002;-94.584;2022-07-06T10:29:13;1.42;;;1.00;;
62808;SDS011;48848;39.002;-94.584;2022-07-06T10:31:40;1.38;;;0.98;;
62808;SDS011;48848;39.002;-94.584;2022-07-06T10:34:11;1.70;;;1.08;;
62808;SDS011;48848;39.002;-94.584;2022-07-06T10:36:41;1.13;;;1.00;;
62808;SDS011;48848;39.002;-94.584;2022-07-06T10:39:08;1.10;;;1.00;;
62808;SDS011;48848;39.002;-94.584;2022-07-06T10:41:54;2.25;;;1.30;;
62808;SDS011;48848;39.002;-94.584;2022-07-06T10:44:25;1.35;;;1.00;;
62808;SDS011;48848;39.002;-94.584;2022-07-06T10:46:56;1.05;;;0.90;;
62808;SDS011;48848;39.002;-94.584;2022-07-06T10:49:25;1.08;;;0.88;;
62808;SDS011;48848;39.002;-94.584;2022-07-06T10:51:52;3.75;;;1.15;;
62808;SDS011;48848;39.002;-94.584;2022-07-06T10:54:21;1.50;;;1.00;;
62808;SDS011;48848;39.002;-94.584;2022-07-06T10:56:49;1.33;;;0.90;;
62808;SDS011;48848;39.002;-94.584;2022-07-06T10:59:20;4.00;;;1.00;;
62808;SDS011;48848;39.002;-94.584;2022-07-06T11:04:40;1.45;;;0.90;;
62808;SDS011;48848;39.002;-94.584;2022-07-06T11:07:18;2.00;;;1.00;;
62808;SDS011;48848;39.002;-94.584;2022-07-06T11:09:55;2.88;;;1.00;;
62808;SDS011;48848;39.002;-94.584;2022-07-06T11:12:22;1.75;;;1.00;;
62808;SDS011;48848;39.002;-94.584;2022-07-06T11:14:50;1.30;;;1.00;;
62808;SDS011;48848;39.002;-94.584;2022-07-06T11:17:17;1.13;;;0.90;;
62808;SDS011;48848;39.002;-94.584;2022-07-06T11:22:23;5.50;;;1.05;;
62808;SDS011;48848;39.002;-94.584;2022-07-06T11:24:50;2.10;;;1.10;;
62808;SDS011;48848;39.002;-94.584;2022-07-06T11:27:17;1.67;;;1.10;;
62808;SDS011;48848;39.002;-94.584;2022-07-06T11:29:43;1.73;;;1.00;;
62808;SDS011;48848;39.002;-94.584;2022-07-06T11:32:10;2.00;;;1.10;;
62808;SDS011;48848;39.002;-94.584;2022-07-06T11:34:40;1.83;;;1.20;;
62808;SDS011;48848;39.002;-94.584;2022-07-06T11:37:09;1.67;;;1.10;;
62808;SDS011;48848;39.002;-94.584;2022-07-06T11:39:38;5.38;;;1.20;;
62808;SDS011;48848;39.002;-94.584;2022-07-06T11:42:07;5.18;;;1.08;;
62808;SDS011;48848;39.002;-94.584;2022-07-06T11:44:35;2.90;;;1.10;;
62808;SDS011;48848;39.002;-94.584;2022-07-06T11:47:02;4.60;;;1.20;;
62808;SDS011;48848;39.002;-94.584;2022-07-06T11:49:30;1.88;;;1.10;;
62808;SDS011;48848;39.002;-94.584;2022-07-06T11:51:56;2.95;;;0.90;;
62808;SDS011;48848;39.002;-94.584;2022-07-06T11:54:23;1.58;;;1.00;;
62808;SDS011;48848;39.002;-94.584;2022-07-06T11:56:51;1.58;;;1.00;;
62808;SDS011;48848;39.002;-94.584;2022-07-06T11:59:27;1.90;;;1.13;;
62808;SDS011;48848;39.002;-94.584;2022-07-06T12:04:38;1.20;;;1.00;;
62808;SDS011;48848;39.002;-94.584;2022-07-06T12:07:07;1.50;;;1.15;;
62808;SDS011;48848;39.002;-94.584;2022-07-06T12:09:37;2.05;;;1.08;;
62808;SDS011;48848;39.002;-94.584;2022-07-06T12:12:05;1.95;;;1.10;;
62808;SDS011;48848;39.002;-94.584;2022-07-06T12:14:33;1.83;;;1.23;;
62808;SDS011;48848;39.002;-94.584;2022-07-06T12:17:07;1.23;;;1.00;;
62808;SDS011;48848;39.002;-94.584;2022-07-06T12:19:38;1.27;;;1.00;;
62808;SDS011;48848;39.002;-94.584;2022-07-06T12:22:05;1.33;;;1.00;;
62808;SDS011;48848;39.002;-94.584;2022-07-06T12:24:33;2.22;;;1.10;;
62808;SDS011;48848;39.002;-94.584;2022-07-06T12:27:10;2.03;;;1.10;;
62808;SDS011;48848;39.002;-94.584;2022-07-06T12:29:40;2.90;;;1.17;;
62808;SDS011;48848;39.002;-94.584;2022-07-06T12:32:06;4.30;;;1.25;;
62808;SDS011;48848;39.002;-94.584;2022-07-06T12:34:39;6.53;;;1.35;;
62808;SDS011;48848;39.002;-94.584;2022-07-06T12:37:06;2.85;;;1.30;;
62808;SDS011;48848;39.002;-94.584;2022-07-06T12:39:44;4.60;;;1.67;;
62808;SDS011;48848;39.002;-94.584;2022-07-06T12:42:13;10.85;;;1.60;;
62808;SDS011;48848;39.002;-94.584;2022-07-06T12:44:43;4.45;;;1.30;;
62808;SDS011;48848;39.002;-94.584;2022-07-06T12:47:18;11.85;;;1.90;;
62808;SDS011;48848;39.002;-94.584;2022-07-06T12:49:46;5.68;;;1.50;;
62808;SDS011;48848;39.002;-94.584;2022-07-06T12:52:13;14.38;;;1.55;;
62808;SDS011;48848;39.002;-94.584;2022-07-06T12:57:17;7.13;;;1.20;;
62808;SDS011;48848;39.002;-94.584;2022-07-06T12:59:47;3.65;;;1.40;;
62808;SDS011;48848;39.002;-94.584;2022-07-06T13:02:25;14.88;;;1.63;;
62808;SDS011;48848;39.002;-94.584;2022-07-06T13:05:04;9.88;;;1.45;;
62808;SDS011;48848;39.002;-94.584;2022-07-06T13:07:32;3.70;;;1.30;;
62808;SDS011;48848;39.002;-94.584;2022-07-06T13:10:01;3.05;;;1.10;;
62808;SDS011;48848;39.002;-94.584;2022-07-06T13:12:30;3.00;;;1.27;;
62808;SDS011;48848;39.002;-94.584;2022-07-06T13:14:56;3.63;;;1.40;;
62808;SDS011;48848;39.002;-94.584;2022-07-06T13:17:22;2.35;;;1.30;;
62808;SDS011;48848;39.002;-94.584;2022-07-06T13:19:48;2.90;;;1.38;;
62808;SDS011;48848;39.002;-94.584;2022-07-06T13:22:15;4.28;;;1.40;;
62808;SDS011;48848;39.002;-94.584;2022-07-06T13:24:41;3.38;;;1.48;;
62808;SDS011;48848;39.002;-94.584;2022-07-06T13:27:07;34.30;;;1.83;;
62808;SDS011;48848;39.002;-94.584;2022-07-06T13:29:34;11.38;;;1.58;;
62808;SDS011;48848;39.002;-94.584;2022-07-06T13:32:01;3.88;;;1.40;;
62808;SDS011;48848;39.002;-94.584;2022-07-06T13:34:27;4.65;;;1.60;;
62808;SDS011;48848;39.002;-94.584;2022-07-06T13:36:53;5.45;;;1.70;;
62808;SDS011;48848;39.002;-94.584;2022-07-06T13:39:20;7.13;;;1.52;;
62808;SDS011;48848;39.002;-94.584;2022-07-06T13:41:46;6.15;;;1.85;;
62808;SDS011;48848;39.002;-94.584;2022-07-06T13:44:12;3.13;;;1.50;;
62808;SDS011;48848;39.002;-94.584;2022-07-06T13:46:39;4.22;;;1.70;;
62808;SDS011;48848;39.002;-94.584;2022-07-06T13:49:05;2.90;;;1.52;;
62808;SDS011;48848;39.002;-94.584;2022-07-06T13:51:32;4.13;;;1.60;;
62808;SDS011;48848;39.002;-94.584;2022-07-06T13:53:59;5.03;;;1.55;;
62808;SDS011;48848;39.002;-94.584;2022-07-06T13:56:26;3.10;;;1.60;;
62808;SDS011;48848;39.002;-94.584;2022-07-06T13:58:53;4.72;;;1.63;;
62808;SDS011;48848;39.002;-94.584;2022-07-06T14:01:20;3.75;;;1.60;;
62808;SDS011;48848;39.002;-94.584;2022-07-06T14:03:46;3.25;;;1.63;;
62808;SDS011;48848;39.002;-94.584;2022-07-06T14:06:13;13.40;;;2.10;;
62808;SDS011;48848;39.002;-94.584;2022-07-06T14:08:40;5.70;;;1.70;;
62808;SDS011;48848;39.002;-94.584;2022-07-06T14:11:06;3.83;;;1.77;;
62808;SDS011;48848;39.002;-94.584;2022-07-06T14:13:34;4.32;;;1.75;;
62808;SDS011;48848;39.002;-94.584;2022-07-06T14:16:02;6.88;;;1.85;;
62808;SDS011;48848;39.002;-94.584;2022-07-06T14:18:28;38.00;;;2.42;;
62808;SDS011;48848;39.002;-94.584;2022-07-06T14:20:55;8.75;;;2.08;;
62808;SDS011;48848;39.002;-94.584;2022-07-06T14:23:21;10.10;;;2.05;;
62808;SDS011;48848;39.002;-94.584;2022-07-06T14:25:48;3.08;;;1.83;;
62808;SDS011;48848;39.002;-94.584;2022-07-06T14:28:15;3.42;;;1.90;;
62808;SDS011;48848;39.002;-94.584;2022-07-06T14:30:42;3.58;;;1.90;;
62808;SDS011;48848;39.002;-94.584;2022-07-06T14:33:10;5.25;;;1.80;;